Metsaborg — PBFL — position and weather

sailwx.info

Track history (hours):
 
Tides and Currents Weather Stations Pressure Air Temp Water Temp Dewpoint Dewpoint Depression Visibility Wind Speed Wind Dir Waves Ship Positions

Metsaborg

Last reported at 2014-Oct-31 11:31 UTC. Time now 2014-Oct-31 12:12 UTC.
Position N 51°53' E 004°26'.

Length 134 m; draft 7.4 m.

Type: Cargo ship. MMSI: 246270000.

Date/timePositionNaut miles runAvg speedWind from/ knotsBaromVisibWave heightAir tempDewpointWater temp
2014-Oct-31 11:31N 51°53' E 004°26'0 0.0
2014-Oct-31 10:31N 51°53' E 004°26'0 0.0
2014-Oct-31 09:28N 51°53' E 004°26'0 0.0
2014-Oct-31 08:30N 51°53' E 004°26'0 0.0
2014-Oct-31 07:32N 51°53' E 004°26'0 0.0
2014-Oct-31 06:29N 51°53' E 004°26'0 0.0
2014-Oct-31 05:31N 51°53' E 004°26'0 0.0
2014-Oct-31 04:33N 51°53' E 004°26'0 0.0
2014-Oct-31 03:28N 51°53' E 004°26'0 0.0
2014-Oct-31 02:30N 51°53' E 004°26'0 0.0
2014-Oct-31 01:33N 51°53' E 004°26'0 0.0
2014-Oct-31 00:32N 51°53' E 004°26'0 0.0
2014-Oct-30 23:29N 51°53' E 004°26'0 0.0
2014-Oct-30 22:32N 51°53' E 004°26'0 0.0
2014-Oct-30 21:25N 51°53' E 004°26'0 0.0
2014-Oct-30 20:31N 51°53' E 004°26'0 0.0
2014-Oct-30 19:33N 51°53' E 004°26'0 0.0
2014-Oct-30 18:33N 51°53' E 004°26'0 0.0
2014-Oct-30 17:33N 51°53' E 004°26'0 0.0
2014-Oct-30 16:31N 51°53' E 004°26'0 0.0
2014-Oct-30 15:31N 51°53' E 004°26'0 0.0
2014-Oct-30 14:34N 51°53' E 004°26'0 0.0
2014-Oct-30 13:33N 51°53' E 004°26'0 0.0
2014-Oct-30 12:33N 51°53' E 004°26'0 0.0
2014-Oct-30 11:32N 51°53' E 004°26'0 0.0
2014-Oct-30 10:32N 51°53' E 004°26'0 0.0
2014-Oct-30 09:31N 51°53' E 004°26'0 0.0
2014-Oct-30 08:19N 51°53' E 004°26'0 0.0
2014-Oct-30 07:33N 51°53' E 004°26'0 0.0
2014-Oct-30 06:28N 51°53' E 004°26'0 0.0
2014-Oct-30 05:32N 51°53' E 004°26'0 0.0
2014-Oct-30 04:29N 51°53' E 004°26'0 0.0
2014-Oct-30 03:31N 51°53' E 004°26'0 0.0
2014-Oct-30 02:33N 51°53' E 004°26'1 0.9
2014-Oct-30 01:33N 51°54' E 004°25'4 3.5
2014-Oct-30 00:34N 51°51' E 004°25'9 8.7
2014-Oct-29 23:34N 51°48' E 004°38'0 0.2
2014-Oct-29 22:33N 51°48' E 004°38'0 0.0
2014-Oct-29 21:34N 51°48' E 004°38'0 0.0
2014-Oct-29 20:33N 51°48' E 004°38'0 0.0
2014-Oct-29 19:34N 51°48' E 004°38'0 0.0
2014-Oct-29 18:33N 51°48' E 004°38'0 0.0
2014-Oct-29 17:33N 51°48' E 004°38'0 0.0
2014-Oct-29 16:33N 51°48' E 004°38'0 0.0
2014-Oct-29 15:34N 51°48' E 004°38'0 0.0
2014-Oct-29 14:34N 51°48' E 004°38'0 0.0
2014-Oct-29 13:34N 51°48' E 004°38'0 0.0
2014-Oct-29 12:32N 51°48' E 004°38'0 0.0
2014-Oct-29 11:34N 51°48' E 004°38'0 0.0
2014-Oct-29 10:32N 51°48' E 004°38'0 0.0
2014-Oct-29 09:33N 51°48' E 004°38'0 0.0
2014-Oct-29 08:34N 51°48' E 004°38'0 0.0
2014-Oct-29 07:34N 51°48' E 004°38'0 0.0
2014-Oct-29 06:34N 51°48' E 004°38'0 0.0
2014-Oct-29 05:34N 51°48' E 004°38'0 0.0
2014-Oct-29 04:33N 51°48' E 004°38'0 0.0
2014-Oct-29 03:34N 51°48' E 004°38'0 0.0
2014-Oct-29 02:34N 51°48' E 004°38'0 0.0
2014-Oct-29 01:34N 51°48' E 004°38'0 0.0
2014-Oct-29 00:34N 51°48' E 004°38'0 0.0
2014-Oct-28 23:33N 51°48' E 004°38'0 0.0
2014-Oct-28 22:33N 51°48' E 004°38'0 0.0
2014-Oct-28 21:34N 51°48' E 004°38'0 0.0
2014-Oct-28 20:32N 51°48' E 004°38'0 0.0
2014-Oct-28 19:33N 51°48' E 004°38'0 0.1
2014-Oct-28 18:33N 51°48' E 004°38'5 5.2
2014-Oct-28 17:33N 51°50' E 004°31'7 7.2
2014-Oct-28 16:33N 51°52' E 004°20'7 6.8
2014-Oct-28 15:33N 51°57' E 004°11'9 8.6
2014-Oct-28 14:33N 51°60' E 003°58'9 9.0
2014-Oct-28 13:33N 51°58' E 003°44'9 8.9
2014-Oct-28 12:33N 51°56' E 003°30'1010.1
2014-Oct-28 11:33N 51°54' E 003°14'1010.3
2014-Oct-28 10:33N 51°50' E 002°58'1210.9
2014-Oct-28 09:28N 51°46' E 002°40'1111.2
2014-Oct-28 08:29N 51°38' E 002°28'1111.9
2014-Oct-28 07:33N 51°30' E 002°16'1412.5
2014-Oct-28 06:24N 51°17' E 002°06'1112.4
2014-Oct-28 05:32N 51°10' E 001°54'1413.5
2014-Oct-28 04:32N 51°01' E 001°38'1414.1
2014-Oct-28 03:32N 50°49' E 001°25'1313.5
2014-Oct-28 02:33N 50°37' E 001°15'2712.9
2014-Oct-28 00:27N 50°24' E 000°38'28510.6
2014-Oct-26 21:33N 47°48' W 005°27'20511.4
2014-Oct-26 03:33N 44°36' W 003°43'1211.0
2014-Oct-26 02:27N 44°24' W 003°37'1011.0
2014-Oct-26 01:33N 44°15' W 003°32'1211.2
2014-Oct-26 00:31N 44°04' W 003°26'1111.2
2014-Oct-25 23:33N 43°54' W 003°21'1211.4
2014-Oct-25 22:32N 43°43' W 003°16'1211.8
2014-Oct-25 21:33N 43°33' W 003°10'12 2.2
2014-Oct-25 16:07N 43°21' W 003°03'0 0.0
2014-Oct-25 05:26N 43°21' W 003°03'0 0.0
2014-Oct-25 04:32N 43°21' W 003°03'0 0.0
2014-Oct-24 21:03N 43°21' W 003°03'1 2.7
2014-Oct-24 20:34N 43°22' W 003°04'1312.6
2014-Oct-24 19:33N 43°29' W 003°19'1413.9
2014-Oct-24 18:34N 43°36' W 003°36'1514.0
2014-Oct-24 17:31N 43°39' W 003°56'3313.9
2014-Oct-24 15:09N 43°46' W 004°40'914.0
2014-Oct-24 14:29N 43°47' W 004°53'1314.0
2014-Oct-24 13:33N 43°48' W 005°11'1514.6
2014-Oct-24 12:33N 43°49' W 005°31'1414.5
2014-Oct-24 11:33N 43°50' W 005°51'1514.0
2014-Oct-24 10:31N 43°50' W 006°12'31810.2
2014-Oct-23 03:11N 39°17' W 009°49'710.6
2014-Oct-23 02:33N 39°10' W 009°50'1010.2
2014-Oct-23 01:32N 38°60' W 009°50'1010.2
2014-Oct-23 00:33N 38°50' W 009°50'1010.2
2014-Oct-22 23:33N 38°39' W 009°50'1010.0
2014-Oct-22 22:32N 38°29' W 009°50'1110.3
2014-Oct-22 21:29N 38°19' W 009°50'1010.4
2014-Oct-22 20:33N 38°09' W 009°50'1010.5
2014-Oct-22 19:33N 37°58' W 009°50'1010.2
2014-Oct-22 18:33N 37°48' W 009°49'1010.0
2014-Oct-22 17:33N 37°38' W 009°50'1110.5
2014-Oct-22 16:33N 37°28' W 009°50'1110.7
2014-Oct-22 15:33N 37°17' W 009°50'1010.3
2014-Oct-22 14:33N 37°07' W 009°50'1010.2
2014-Oct-22 13:33N 36°57' W 009°50'1010.0
2014-Oct-22 12:32N 36°46' W 009°50'1110.2
2014-Oct-22 11:26N 36°35' W 009°51'2310.3
2014-Oct-22 09:15N 36°13' W 009°51'  
Track history (hours):
 
Tides and Currents Weather Stations Pressure Air Temp Water Temp Dewpoint Dewpoint Depression Visibility Wind Speed Wind Dir Waves Ship Positions

Metsaborg

Last reported at 2014-Oct-31 11:31 UTC. Time now 2014-Oct-31 12:12 UTC.
Position N 51°53' E 004°26'.

Length 134 m; draft 7.4 m.

Type: Cargo ship. MMSI: 246270000.

Date/timePositionNaut miles runAvg speedWind from/ knotsBaromVisibWave heightAir tempDewpointWater temp
2014-Oct-31 11:31N 51°53' E 004°26'0 0.0
2014-Oct-31 10:31N 51°53' E 004°26'0 0.0
2014-Oct-31 09:28N 51°53' E 004°26'0 0.0
2014-Oct-31 08:30N 51°53' E 004°26'0 0.0
2014-Oct-31 07:32N 51°53' E 004°26'0 0.0
2014-Oct-31 06:29N 51°53' E 004°26'0 0.0
2014-Oct-31 05:31N 51°53' E 004°26'0 0.0
2014-Oct-31 04:33N 51°53' E 004°26'0 0.0
2014-Oct-31 03:28N 51°53' E 004°26'0 0.0
2014-Oct-31 02:30N 51°53' E 004°26'0 0.0
2014-Oct-31 01:33N 51°53' E 004°26'0 0.0
2014-Oct-31 00:32N 51°53' E 004°26'0 0.0
2014-Oct-30 23:29N 51°53' E 004°26'0 0.0
2014-Oct-30 22:32N 51°53' E 004°26'0 0.0
2014-Oct-30 21:25N 51°53' E 004°26'0 0.0
2014-Oct-30 20:31N 51°53' E 004°26'0 0.0
2014-Oct-30 19:33N 51°53' E 004°26'0 0.0
2014-Oct-30 18:33N 51°53' E 004°26'0 0.0
2014-Oct-30 17:33N 51°53' E 004°26'0 0.0
2014-Oct-30 16:31N 51°53' E 004°26'0 0.0
2014-Oct-30 15:31N 51°53' E 004°26'0 0.0
2014-Oct-30 14:34N 51°53' E 004°26'0 0.0
2014-Oct-30 13:33N 51°53' E 004°26'0 0.0
2014-Oct-30 12:33N 51°53' E 004°26'0 0.0
2014-Oct-30 11:32N 51°53' E 004°26'0 0.0
2014-Oct-30 10:32N 51°53' E 004°26'0 0.0
2014-Oct-30 09:31N 51°53' E 004°26'0 0.0
2014-Oct-30 08:19N 51°53' E 004°26'0 0.0
2014-Oct-30 07:33N 51°53' E 004°26'0 0.0
2014-Oct-30 06:28N 51°53' E 004°26'0 0.0
2014-Oct-30 05:32N 51°53' E 004°26'0 0.0
2014-Oct-30 04:29N 51°53' E 004°26'0 0.0
2014-Oct-30 03:31N 51°53' E 004°26'0 0.0
2014-Oct-30 02:33N 51°53' E 004°26'1 0.9
2014-Oct-30 01:33N 51°54' E 004°25'4 3.5
2014-Oct-30 00:34N 51°51' E 004°25'9 8.7
2014-Oct-29 23:34N 51°48' E 004°38'0 0.2
2014-Oct-29 22:33N 51°48' E 004°38'0 0.0
2014-Oct-29 21:34N 51°48' E 004°38'0 0.0
2014-Oct-29 20:33N 51°48' E 004°38'0 0.0
2014-Oct-29 19:34N 51°48' E 004°38'0 0.0
2014-Oct-29 18:33N 51°48' E 004°38'0 0.0
2014-Oct-29 17:33N 51°48' E 004°38'0 0.0
2014-Oct-29 16:33N 51°48' E 004°38'0 0.0
2014-Oct-29 15:34N 51°48' E 004°38'0 0.0
2014-Oct-29 14:34N 51°48' E 004°38'0 0.0
2014-Oct-29 13:34N 51°48' E 004°38'0 0.0
2014-Oct-29 12:32N 51°48' E 004°38'0 0.0
2014-Oct-29 11:34N 51°48' E 004°38'0 0.0
2014-Oct-29 10:32N 51°48' E 004°38'0 0.0
2014-Oct-29 09:33N 51°48' E 004°38'0 0.0
2014-Oct-29 08:34N 51°48' E 004°38'0 0.0
2014-Oct-29 07:34N 51°48' E 004°38'0 0.0
2014-Oct-29 06:34N 51°48' E 004°38'0 0.0
2014-Oct-29 05:34N 51°48' E 004°38'0 0.0
2014-Oct-29 04:33N 51°48' E 004°38'0 0.0
2014-Oct-29 03:34N 51°48' E 004°38'0 0.0
2014-Oct-29 02:34N 51°48' E 004°38'0 0.0
2014-Oct-29 01:34N 51°48' E 004°38'0 0.0
2014-Oct-29 00:34N 51°48' E 004°38'0 0.0
2014-Oct-28 23:33N 51°48' E 004°38'0 0.0
2014-Oct-28 22:33N 51°48' E 004°38'0 0.0
2014-Oct-28 21:34N 51°48' E 004°38'0 0.0
2014-Oct-28 20:32N 51°48' E 004°38'0 0.0
2014-Oct-28 19:33N 51°48' E 004°38'0 0.1
2014-Oct-28 18:33N 51°48' E 004°38'5 5.2
2014-Oct-28 17:33N 51°50' E 004°31'7 7.2
2014-Oct-28 16:33N 51°52' E 004°20'7 6.8
2014-Oct-28 15:33N 51°57' E 004°11'9 8.6
2014-Oct-28 14:33N 51°60' E 003°58'9 9.0
2014-Oct-28 13:33N 51°58' E 003°44'9 8.9
2014-Oct-28 12:33N 51°56' E 003°30'1010.1
2014-Oct-28 11:33N 51°54' E 003°14'1010.3
2014-Oct-28 10:33N 51°50' E 002°58'1210.9
2014-Oct-28 09:28N 51°46' E 002°40'1111.2
2014-Oct-28 08:29N 51°38' E 002°28'1111.9
2014-Oct-28 07:33N 51°30' E 002°16'1412.5
2014-Oct-28 06:24N 51°17' E 002°06'1112.4
2014-Oct-28 05:32N 51°10' E 001°54'1413.5
2014-Oct-28 04:32N 51°01' E 001°38'1414.1
2014-Oct-28 03:32N 50°49' E 001°25'1313.5
2014-Oct-28 02:33N 50°37' E 001°15'2712.9
2014-Oct-28 00:27N 50°24' E 000°38'28510.6
2014-Oct-26 21:33N 47°48' W 005°27'20511.4
2014-Oct-26 03:33N 44°36' W 003°43'1211.0
2014-Oct-26 02:27N 44°24' W 003°37'1011.0
2014-Oct-26 01:33N 44°15' W 003°32'1211.2
2014-Oct-26 00:31N 44°04' W 003°26'1111.2
2014-Oct-25 23:33N 43°54' W 003°21'1211.4
2014-Oct-25 22:32N 43°43' W 003°16'1211.8
2014-Oct-25 21:33N 43°33' W 003°10'12 2.2
2014-Oct-25 16:07N 43°21' W 003°03'0 0.0
2014-Oct-25 05:26N 43°21' W 003°03'0 0.0
2014-Oct-25 04:32N 43°21' W 003°03'0 0.0
2014-Oct-24 21:03N 43°21' W 003°03'1 2.7
2014-Oct-24 20:34N 43°22' W 003°04'1312.6
2014-Oct-24 19:33N 43°29' W 003°19'1413.9
2014-Oct-24 18:34N 43°36' W 003°36'1514.0
2014-Oct-24 17:31N 43°39' W 003°56'3313.9
2014-Oct-24 15:09N 43°46' W 004°40'914.0
2014-Oct-24 14:29N 43°47' W 004°53'1314.0
2014-Oct-24 13:33N 43°48' W 005°11'1514.6
2014-Oct-24 12:33N 43°49' W 005°31'1414.5
2014-Oct-24 11:33N 43°50' W 005°51'1514.0
2014-Oct-24 10:31N 43°50' W 006°12'31810.2
2014-Oct-23 03:11N 39°17' W 009°49'710.6
2014-Oct-23 02:33N 39°10' W 009°50'1010.2
2014-Oct-23 01:32N 38°60' W 009°50'1010.2
2014-Oct-23 00:33N 38°50' W 009°50'1010.2
2014-Oct-22 23:33N 38°39' W 009°50'1010.0
2014-Oct-22 22:32N 38°29' W 009°50'1110.3
2014-Oct-22 21:29N 38°19' W 009°50'1010.4
2014-Oct-22 20:33N 38°09' W 009°50'1010.5
2014-Oct-22 19:33N 37°58' W 009°50'1010.2
2014-Oct-22 18:33N 37°48' W 009°49'1010.0
2014-Oct-22 17:33N 37°38' W 009°50'1110.5
2014-Oct-22 16:33N 37°28' W 009°50'1110.7
2014-Oct-22 15:33N 37°17' W 009°50'1010.3
2014-Oct-22 14:33N 37°07' W 009°50'1010.2
2014-Oct-22 13:33N 36°57' W 009°50'1010.0
2014-Oct-22 12:32N 36°46' W 009°50'1110.2
2014-Oct-22 11:26N 36°35' W 009°51'2310.3
2014-Oct-22 09:15N 36°13' W 009°51'  

Dump ship's entire track history